Time;durP1;ratioP1;P1;durP2;ratioP2;P2;SDS_P1;SDS_P2;PMS_P1;PMS_P2;Temp;Humidity;BMP_temperature;BMP_pressure;BME280_temperature;BME280_humidity;BME280_pressure;Samples;Min_cycle;Max_cycle;Signal;HPM_P1;HPM_P2
2022/01/12 00:00:11;;;;;;;4.60;3.10;;;;;;;22.11;29.86;102097.25;104723;1305;60312;-85
2022/01/12 00:02:37;;;;;;;4.80;3.50;;;;;;;22.11;29.94;102098.52;104783;1305;61247;-82
2022/01/12 00:05:34;;;;;;;;;;;;;;;;;;;;;
2022/01/12 00:08:05;;;;;;;4.10;2.80;;;;;;;22.12;29.95;102109.77;104573;1306;75715;-83
2022/01/12 00:10:44;;;;;;;4.50;3.00;;;;;;;22.11;29.94;102111.94;104554;1305;61229;-83
2022/01/12 00:13:22;;;;;;;4.50;2.90;;;;;;;22.11;29.90;102114.99;104560;1306;61163;-81
2022/01/12 00:15:51;;;;;;;3.90;2.90;;;;;;;22.11;29.81;102116.80;104530;1308;72813;-83
2022/01/12 00:18:41;;;;;;;;;;;;;;;;;;;;;
2022/01/12 00:21:13;;;;;;;5.20;3.00;;;;;;;22.12;29.69;102112.30;104602;1307;61446;-83
2022/01/12 00:23:41;;;;;;;3.80;2.90;;;;;;;22.12;29.78;102122.34;104723;1306;61381;-83
2022/01/12 00:26:25;;;;;;;4.40;3.00;;;;;;;22.12;29.83;102120.72;104539;1305;61238;-83
2022/01/12 00:35:16;;;;;;;4.80;3.10;;;;;;;22.11;29.81;102135.07;104671;1305;61187;-86
2022/01/12 00:37:52;;;;;;;4.30;3.00;;;;;;;22.12;29.86;102134.52;104623;1305;73005;-82
2022/01/12 00:40:29;;;;;;;4.20;2.90;;;;;;;22.12;29.84;102129.66;104684;1305;75838;-82
2022/01/12 00:42:56;;;;;;;4.20;3.00;;;;;;;22.12;29.93;102131.27;104742;1305;61367;-85
2022/01/12 00:45:37;;;;;;;;;;;;;;;22.12;29.86;102132.88;104530;1305;61216;-84
2022/01/12 00:48:08;;;;;;;4.10;2.90;;;;;;;22.10;29.77;102127.23;104812;1305;73480;-82
2022/01/12 00:50:41;;;;;;;5.10;3.20;;;;;;;22.11;29.90;102124.52;104624;1306;74796;-84
2022/01/12 00:53:30;;;;;;;4.80;2.90;;;;;;;22.11;29.70;102128.97;104613;1305;61827;-81
2022/01/12 00:55:59;;;;;;;4.10;2.90;;;;;;;22.11;29.75;102126.29;104714;1305;61674;-82
2022/01/12 00:58:32;;;;;;;4.20;2.90;;;;;;;22.11;29.69;102130.95;104706;1305;72702;-83
2022/01/12 01:01:04;;;;;;;4.30;2.80;;;;;;;22.12;29.65;102124.98;104681;1305;75827;-81
2022/01/12 01:03:36;;;;;;;3.80;2.90;;;;;;;22.12;29.79;102117.11;104753;1306;61177;-83
2022/01/12 01:06:13;;;;;;;4.40;2.80;;;;;;;22.13;29.71;102113.48;104488;1307;61211;-87
2022/01/12 01:08:50;;;;;;;4.20;2.70;;;;;;;22.13;29.62;102118.65;104536;1308;72797;-82
2022/01/12 01:11:26;;;;;;;4.80;2.90;;;;;;;22.13;29.66;102119.58;104562;1305;74644;-83
2022/01/12 01:14:13;;;;;;;4.50;3.10;;;;;;;22.13;29.65;102122.77;104515;1305;61536;-84
2022/01/12 01:26:03;;;;;;;3.80;2.70;;;;;;;22.13;29.47;102119.40;104305;1311;62519;-82
2022/01/12 01:28:36;;;;;;;4.10;3.00;;;;;;;22.14;29.53;102122.95;104340;1311;60986;-82
2022/01/12 01:31:11;;;;;;;4.60;3.10;;;;;;;22.14;29.62;102120.76;104323;1309;73045;-82
2022/01/12 01:34:05;;;;;;;6.10;2.70;;;;;;;22.14;29.47;102120.39;104103;1310;429640;-82
2022/01/12 01:37:11;;;;;;;3.80;2.50;;;;;;;22.14;29.55;102118.80;104415;1310;61126;-84
2022/01/12 01:39:51;;;;;;;4.20;2.80;;;;;;;22.15;29.63;102119.83;104304;1311;61324;-82
2022/01/12 01:42:41;;;;;;;5.10;2.70;;;;;;;22.15;29.54;102120.19;104290;1311;72744;-82
2022/01/12 01:54:16;;;;;;;4.30;2.60;;;;;;;22.14;29.45;102122.02;104418;1310;72618;-86
2022/01/12 01:56:57;;;;;;;3.80;2.70;;;;;;;22.14;29.64;102119.86;104391;1311;75873;-82
2022/01/12 01:59:53;;;;;;;4.20;2.90;;;;;;;22.15;29.52;102122.67;104424;1311;61130;-88
2022/01/12 02:02:29;;;;;;;4.00;2.60;;;;;;;22.14;29.38;102123.45;104783;1305;61295;-82
2022/01/12 02:05:05;;;;;;;4.00;2.60;;;;;;;22.15;29.42;102128.06;104621;1305;72868;-82
2022/01/12 02:07:38;;;;;;;3.50;2.50;;;;;;;22.16;29.39;102130.36;104666;1305;76023;-81
2022/01/12 02:10:05;;;;;;;4.20;2.90;;;;;;;22.16;29.28;102133.04;104590;1305;61271;-81
2022/01/12 02:12:42;;;;;;;3.90;2.40;;;;;;;22.16;29.44;102136.79;104370;1311;61323;-79
2022/01/12 02:15:37;;;;;;;4.40;2.70;;;;;;;22.16;29.33;102141.26;104241;1312;72638;-86
2022/01/12 02:18:11;;;;;;;3.80;2.30;;;;;;;22.16;29.35;102138.77;104329;1311;73537;-83
2022/01/12 02:35:53;;;;;;;4.00;2.80;;;;;;;22.15;29.27;102143.66;104139;1314;61199;-83
2022/01/12 02:41:32;;;;;;;5.50;2.50;;;;;;;22.15;29.16;102148.52;104042;1314;73560;-82
2022/01/12 02:56:04;;;;;;;3.60;2.30;;;;;;;22.15;29.37;102154.58;104054;1315;62057;-82
2022/01/12 02:58:46;;;;;;;3.50;2.40;;;;;;;22.15;29.21;102155.46;104038;1315;61287;-82
2022/01/12 03:04:16;;;;;;;5.30;2.70;;;;;;;22.16;29.03;102156.17;103301;1322;74764;-82
2022/01/12 03:09:51;;;;;;;3.70;2.50;;;;;;;22.16;29.18;102165.48;102669;1329;61314;-82
2022/01/12 03:12:40;;;;;;;3.50;2.50;;;;;;;22.16;29.16;102164.04;102543;1329;71669;-82
2022/01/12 03:15:08;;;;;;;4.20;2.70;;;;;;;22.17;29.07;102161.86;102686;1329;74637;-81
2022/01/12 03:17:51;;;;;;;4.40;2.60;;;;;;;22.16;29.26;102159.35;102489;1329;61371;-81
2022/01/12 03:20:17;;;;;;;3.90;2.40;;;;;;;22.17;29.07;102156.47;102498;1329;61361;-82
2022/01/12 03:22:46;;;;;;;3.60;2.70;;;;;;;22.17;29.11;102152.33;102495;1329;61325;-80
2022/01/12 03:25:17;;;;;;;3.90;2.60;;;;;;;22.17;28.94;102155.20;102892;1325;74768;-81
2022/01/12 03:28:01;;;;;;;4.00;2.70;;;;;;;22.17;29.06;102156.61;102761;1326;61266;-81
2022/01/12 03:30:34;;;;;;;3.60;2.40;;;;;;;22.17;29.12;102162.73;102767;1326;61318;-79
2022/01/12 03:33:30;;;;;;;3.30;2.20;;;;;;;22.17;28.95;102162.02;102884;1325;73949;-83
2022/01/12 03:36:01;;;;;;;5.20;2.40;;;;;;;22.17;28.97;102161.48;102769;1326;76100;-81
2022/01/12 03:38:27;;;;;;;3.30;2.10;;;;;;;22.17;29.12;102157.89;102715;1326;61415;-83
2022/01/12 03:41:02;;;;;;;3.60;2.20;;;;;;;22.17;29.02;102163.63;102836;1320;61306;-85
2022/01/12 03:43:37;;;;;;;;;;;;;;;;;;;;;
2022/01/12 03:46:08;;;;;;;3.70;2.50;;;;;;;22.18;29.01;102162.88;103316;1316;74943;-83
2022/01/12 03:48:45;;;;;;;3.30;2.40;;;;;;;22.18;29.06;102164.50;104823;1305;61059;-86
2022/01/12 03:51:13;;;;;;;4.30;2.80;;;;;;;22.18;28.82;102160.36;104680;1305;61491;-83
2022/01/12 03:53:42;;;;;;;3.90;2.50;;;;;;;22.18;28.89;102162.14;104578;1306;73335;-83
2022/01/12 03:56:24;;;;;;;3.40;2.40;;;;;;;22.18;28.99;102166.82;104660;1305;75734;-85
2022/01/12 03:59:02;;;;;;;3.70;2.60;;;;;;;22.18;28.90;102164.85;104466;1307;61436;-83
2022/01/12 04:01:27;;;;;;;4.30;2.40;;;;;;;22.18;28.79;102171.66;104759;1305;61114;-83
2022/01/12 04:04:17;;;;;;;3.50;2.40;;;;;;;22.18;28.69;102170.23;104492;1307;72772;-82
2022/01/12 04:09:57;;;;;;;3.90;2.40;;;;;;;22.18;28.91;102178.83;104701;1305;61402;-83
2022/01/12 04:12:28;;;;;;;3.60;2.40;;;;;;;22.18;28.86;102182.92;104667;1305;61287;-86
2022/01/12 04:15:01;;;;;;;4.00;2.60;;;;;;;22.19;28.95;102186.32;104509;1306;73896;-79
2022/01/12 04:17:44;;;;;;;3.60;2.30;;;;;;;22.19;28.75;102187.36;104682;1305;75791;-83
2022/01/12 04:20:38;;;;;;;4.40;2.50;;;;;;;22.19;28.83;102191.34;104635;1306;61247;-82
2022/01/12 04:23:19;;;;;;;4.30;2.50;;;;;;;22.19;28.64;102197.77;104641;1308;61280;-82
2022/01/12 04:25:58;;;;;;;4.10;2.50;;;;;;;22.19;28.91;102197.77;104617;1305;72961;-85
2022/01/12 04:28:37;;;;;;;3.50;2.40;;;;;;;22.20;28.91;102202.23;104534;1307;75790;-80
2022/01/12 04:31:20;;;;;;;4.70;2.30;;;;;;;22.19;28.59;102202.23;104606;1308;61286;-84
2022/01/12 04:33:57;;;;;;;3.80;2.40;;;;;;;22.20;28.83;102196.30;104655;1306;61124;-82
2022/01/12 04:36:26;;;;;;;3.70;2.50;;;;;;;22.20;28.86;102195.41;104810;1304;73927;-84
2022/01/12 04:39:03;;;;;;;3.50;2.50;;;;;;;22.20;28.71;102199.86;104660;1305;74834;-85
2022/01/12 04:41:32;;;;;;;3.70;2.50;;;;;;;22.21;28.86;102200.72;104597;1308;61460;-82
2022/01/12 04:44:11;;;;;;;3.30;2.50;;;;;;;22.20;28.67;102202.89;104498;1307;61254;-81
2022/01/12 04:47:03;;;;;;;4.70;2.70;;;;;;;22.21;28.71;102207.54;104576;1305;73915;-82
2022/01/12 04:49:47;;;;;;;3.50;2.30;;;;;;;22.22;28.70;102205.88;104606;1305;74795;-85
2022/01/12 04:52:14;;;;;;;4.00;2.40;;;;;;;22.21;28.88;102209.14;104570;1307;61289;-82
2022/01/12 04:54:40;;;;;;;4.30;2.60;;;;;;;22.21;28.71;102213.95;104830;1306;60373;-78
2022/01/12 04:57:11;;;;;;;3.60;2.40;;;;;;;22.21;28.74;102218.66;104584;1306;61303;-83
2022/01/12 05:00:02;;;;;;;3.50;2.50;;;;;;;22.21;28.60;102219.73;104798;1306;74676;-85
2022/01/12 05:13:54;;;;;;;14.50;3.00;;;;;;;22.18;28.19;102230.82;104415;1308;61417;-85
2022/01/12 05:16:27;;;;;;;15.70;3.00;;;;;;;22.17;27.99;102235.70;104586;1305;61602;-83
2022/01/12 05:18:59;;;;;;;10.50;3.30;;;;;;;22.16;27.99;102239.55;104676;1304;75521;-83
2022/01/12 05:21:28;;;;;;;10.70;3.30;;;;;;;22.12;27.62;102239.72;104542;1307;75696;-86
2022/01/12 05:23:55;;;;;;;7.90;3.90;;;;;;;22.07;27.75;102245.41;104365;1308;61200;-83
2022/01/12 05:26:43;;;;;;;9.20;3.80;;;;;;;21.99;27.66;102252.82;104436;1307;61186;-83
2022/01/12 05:29:20;;;;;;;11.00;3.60;;;;;;;21.90;27.14;102260.95;104433;1308;73060;-80
2022/01/12 05:31:46;;;;;;;8.40;3.60;;;;;;;21.82;27.00;102264.62;104354;1309;75659;-83
2022/01/12 05:34:12;;;;;;;7.10;4.00;;;;;;;21.72;26.94;102265.78;104287;1306;61771;-81
2022/01/12 05:36:43;;;;;;;5.70;4.00;;;;;;;21.62;26.44;102268.88;104163;1306;61438;-81
2022/01/12 05:39:32;;;;;;;11.00;3.80;;;;;;;21.52;26.27;102271.29;104166;1306;73902;-80
2022/01/12 05:41:58;;;;;;;8.20;4.20;;;;;;;21.38;25.77;102271.64;103750;1312;75749;-81
2022/01/12 05:44:25;;;;;;;5.90;3.10;;;;;;;21.28;25.85;102277.48;103730;1312;61404;-82
2022/01/12 05:49:33;;;;;;;6.70;5.10;;;;;;;21.22;25.79;102280.80;103694;1312;61498;-82
2022/01/12 05:50:29;;;;;;;6.50;4.10;;;;;;;20.38;25.33;102278.08;103607;1310;72727;-80
2022/01/12 05:53:34;;;;;;;5.90;3.70;;;;;;;19.99;25.64;102288.17;104351;1312;75591;-82
2022/01/12 05:56:25;;;;;;;6.00;3.70;;;;;;;20.02;26.01;102292.52;103533;1312;61689;-81
2022/01/12 05:58:59;;;;;;;7.50;3.90;;;;;;;20.04;25.76;102290.99;103184;1312;60474;-82
2022/01/12 06:02:20;;;;;;;;;;;;;;;;;;;;;
2022/01/12 06:05:01;;;;;;;10.10;4.10;;;;;;;20.13;25.77;102298.47;102870;1312;74083;-81
2022/01/12 06:07:28;;;;;;;7.50;4.90;;;;;;;20.17;25.80;102299.70;103628;1312;61329;-81
2022/01/12 06:09:59;;;;;;;7.00;4.50;;;;;;;20.25;25.38;102304.39;103549;1310;61300;-82
2022/01/12 06:12:25;;;;;;;8.40;4.20;;;;;;;20.33;25.03;102312.45;103617;1312;73857;-82
2022/01/12 06:15:11;;;;;;;9.10;4.10;;;;;;;20.41;25.01;102312.27;103807;1310;61255;-81
2022/01/12 06:17:40;;;;;;;10.00;4.50;;;;;;;20.49;24.87;102310.86;103757;1312;62431;-82
2022/01/12 06:20:06;;;;;;;6.10;4.30;;;;;;;20.54;24.81;102312.38;103888;1306;61385;-84
2022/01/12 06:22:53;;;;;;;6.70;4.30;;;;;;;20.62;24.59;102309.54;104163;1305;72818;-81
2022/01/12 06:25:21;;;;;;;6.60;3.90;;;;;;;20.70;24.25;102310.43;103998;1306;76015;-80
2022/01/12 06:27:53;;;;;;;7.40;3.80;;;;;;;20.78;24.31;102314.03;104015;1306;61278;-80
2022/01/12 06:31:28;;;;;;;;;;;;;;;;;;;;;
2022/01/12 06:33:25;;;;;;;7.70;4.00;;;;;;;20.96;24.42;102321.23;105297;1306;71541;-82
2022/01/12 06:35:51;;;;;;;10.10;3.90;;;;;;;21.03;24.41;102325.41;105540;1304;75693;-81
2022/01/12 06:38:22;;;;;;;6.00;3.70;;;;;;;21.09;24.33;102329.74;104223;1306;61333;-81
2022/01/12 06:41:12;;;;;;;8.50;3.90;;;;;;;21.15;24.42;102325.91;103742;1306;61236;-80
2022/01/12 06:43:38;;;;;;;6.70;3.40;;;;;;;21.21;24.62;102330.64;103483;1312;71773;-82
2022/01/12 06:46:06;;;;;;;8.30;3.70;;;;;;;21.26;24.67;102335.40;103456;1312;61435;-82
2022/01/12 06:49:11;;;;;;;10.30;4.10;;;;;;;21.30;24.91;102337.73;103526;1312;61925;-83
2022/01/12 06:51:44;;;;;;;11.00;4.00;;;;;;;21.35;25.06;102338.58;102857;1317;60763;-81
2022/01/12 06:54:10;;;;;;;8.30;4.10;;;;;;;21.37;25.31;102337.75;102887;1317;61431;-81
2022/01/12 06:56:36;;;;;;;11.30;4.50;;;;;;;21.39;25.17;102340.17;102676;1317;61411;-80
2022/01/12 06:59:03;;;;;;;12.20;4.60;;;;;;;21.39;25.12;102338.54;102884;1317;61237;-80
2022/01/12 07:01:29;;;;;;;11.40;4.20;;;;;;;21.40;25.43;102344.59;102656;1317;61227;-81
2022/01/12 07:03:55;;;;;;;10.70;4.00;;;;;;;21.41;25.41;102349.70;102897;1317;61300;-80
2022/01/12 07:06:21;;;;;;;13.60;4.10;;;;;;;21.43;25.47;102350.17;102847;1317;61390;-81
2022/01/12 07:08:47;;;;;;;12.80;4.10;;;;;;;21.43;25.47;102354.48;102910;1317;61334;-81
2022/01/12 07:11:12;;;;;;;10.20;4.10;;;;;;;21.41;25.52;102352.94;102791;1318;61272;-82
2022/01/12 07:13:39;;;;;;;11.70;4.50;;;;;;;21.39;25.51;102346.06;102772;1317;61385;-81
2022/01/12 07:16:05;;;;;;;9.40;4.30;;;;;;;21.39;25.58;102348.38;102640;1317;74952;-81
2022/01/12 07:18:30;;;;;;;9.20;4.20;;;;;;;21.41;25.34;102349.02;102693;1317;61473;-82
2022/01/12 07:20:59;;;;;;;11.60;4.20;;;;;;;21.41;25.29;102347.91;103046;1312;61429;-82
2022/01/12 07:23:28;;;;;;;8.10;4.20;;;;;;;21.42;25.31;102350.91;103240;1314;61683;-81
2022/01/12 07:25:57;;;;;;;10.60;4.30;;;;;;;21.44;25.35;102349.61;103441;1312;72993;-82
2022/01/12 07:28:26;;;;;;;12.70;4.30;;;;;;;21.46;25.48;102351.32;103497;1306;75601;-81
2022/01/12 07:30:52;;;;;;;9.40;4.10;;;;;;;21.47;25.52;102351.94;103965;1304;61366;-80
2022/01/12 07:33:20;;;;;;;8.80;4.30;;;;;;;21.50;25.50;102353.42;103951;1305;62054;-82
2022/01/12 07:35:46;;;;;;;8.70;3.70;;;;;;;21.54;25.52;102355.95;103600;1308;61397;-81
2022/01/12 07:38:14;;;;;;;8.50;3.70;;;;;;;21.57;25.69;102356.16;103686;1305;74440;-82
2022/01/12 07:40:42;;;;;;;9.60;4.00;;;;;;;21.58;25.64;102362.36;103497;1306;61228;-81
2022/01/12 07:43:08;;;;;;;7.80;3.80;;;;;;;21.59;25.82;102362.13;103715;1305;61647;-80
2022/01/12 07:45:34;;;;;;;8.00;4.10;;;;;;;21.60;25.91;102360.67;103762;1305;61320;-80
2022/01/12 07:48:00;;;;;;;7.30;3.90;;;;;;;21.61;25.87;102362.23;104005;1303;61359;-81
2022/01/12 07:50:27;;;;;;;9.50;3.90;;;;;;;21.63;25.97;102367.16;104091;1303;61349;-80
2022/01/12 07:52:53;;;;;;;9.30;3.90;;;;;;;21.65;26.08;102370.28;103797;1305;61434;-81
2022/01/12 07:55:22;;;;;;;8.50;3.70;;;;;;;21.66;26.34;102376.32;105233;1305;60706;-81
2022/01/12 07:57:49;;;;;;;7.60;4.10;;;;;;;21.63;26.46;102373.61;105143;1303;75018;-80
2022/01/12 08:00:15;;;;;;;10.60;4.10;;;;;;;21.55;26.36;102380.77;103906;1305;61076;-83
2022/01/12 08:02:40;;;;;;;9.50;4.30;;;;;;;21.45;26.68;102387.50;103648;1305;61320;-81
2022/01/12 08:05:08;;;;;;;9.80;4.30;;;;;;;21.20;26.20;102381.16;103704;1305;61793;-81
2022/01/12 08:07:36;;;;;;;13.80;4.60;;;;;;;21.15;26.62;102383.90;103861;1303;61314;-80
2022/01/12 08:10:04;;;;;;;10.00;4.10;;;;;;;21.17;26.96;102383.27;103901;1305;62108;-79
2022/01/12 08:12:29;;;;;;;9.70;4.30;;;;;;;21.22;26.94;102391.30;103820;1305;61378;-80
2022/01/12 08:14:55;;;;;;;10.50;4.30;;;;;;;21.28;27.27;102392.28;103920;1305;61295;-80
2022/01/12 08:17:21;;;;;;;12.40;4.00;;;;;;;21.31;27.06;102389.63;103841;1305;61261;-80
2022/01/12 08:19:46;;;;;;;11.30;4.30;;;;;;;21.34;26.82;102393.77;103753;1306;61341;-80
2022/01/12 08:22:13;;;;;;;9.20;4.50;;;;;;;21.39;26.83;102391.76;103852;1305;61253;-81
2022/01/12 08:24:39;;;;;;;10.10;4.40;;;;;;;21.42;26.88;102394.47;103901;1305;61393;-79
2022/01/12 08:27:05;;;;;;;12.30;4.40;;;;;;;21.46;26.94;102398.23;103869;1305;61299;-79
2022/01/12 08:29:30;;;;;;;8.90;4.30;;;;;;;21.49;26.95;102400.42;105152;1308;74856;-79
2022/01/12 08:31:56;;;;;;;11.40;4.20;;;;;;;21.52;27.12;102400.64;105318;1306;59382;-80
2022/01/12 08:34:22;;;;;;;20.10;3.70;;;;;;;21.56;27.15;102406.00;105235;1309;59435;-79
2022/01/12 08:36:48;;;;;;;10.90;4.00;;;;;;;21.60;27.17;102401.52;105003;1310;59831;-79
2022/01/12 08:39:13;;;;;;;12.00;4.20;;;;;;;21.64;27.43;102404.02;105221;1308;59421;-79
2022/01/12 08:41:39;;;;;;;13.10;4.30;;;;;;;21.67;27.63;102403.13;104945;1310;60048;-79
2022/01/12 08:44:07;;;;;;;13.20;3.90;;;;;;;21.71;27.84;102410.14;104582;1309;61377;-79
2022/01/12 08:46:32;;;;;;;13.40;4.50;;;;;;;21.74;27.77;102412.14;103651;1309;62249;-78
2022/01/12 08:48:59;;;;;;;9.50;4.10;;;;;;;21.77;28.04;102409.86;103799;1309;61305;-79
2022/01/12 08:51:26;;;;;;;8.50;4.30;;;;;;;21.78;28.08;102412.31;103801;1309;61407;-79
2022/01/12 08:53:51;;;;;;;12.40;4.30;;;;;;;21.79;28.18;102413.89;103612;1310;61332;-78
2022/01/12 08:56:19;;;;;;;15.40;4.90;;;;;;;21.79;28.15;102415.32;103566;1309;61667;-81
2022/01/12 08:58:48;;;;;;;23.00;5.70;;;;;;;21.71;27.95;102417.64;103728;1308;61362;-81
2022/01/12 09:01:14;;;;;;;20.40;5.60;;;;;;;21.60;27.66;102411.20;103631;1309;76463;-80
2022/01/12 09:03:40;;;;;;;23.50;5.40;;;;;;;21.53;27.76;102410.45;103717;1309;61731;-80
2022/01/12 09:06:06;;;;;;;14.90;4.90;;;;;;;21.49;27.47;102406.86;103566;1309;61367;-81
2022/01/12 09:08:36;;;;;;;19.30;4.90;;;;;;;21.42;27.09;102409.14;103639;1305;61290;-81
2022/01/12 09:11:02;;;;;;;15.80;5.30;;;;;;;21.30;27.14;102409.89;105441;1305;75610;-81
2022/01/12 09:13:28;;;;;;;15.70;4.90;;;;;;;21.23;27.29;102408.23;103932;1306;61407;-81
2022/01/12 09:15:53;;;;;;;18.30;4.90;;;;;;;21.18;27.16;102408.84;104021;1305;61342;-82
2022/01/12 09:18:19;;;;;;;12.30;5.40;;;;;;;21.13;27.34;102403.52;103907;1303;61327;-81
2022/01/12 09:20:47;;;;;;;13.80;5.10;;;;;;;21.08;27.11;102405.15;104028;1304;61520;-81
2022/01/12 09:23:13;;;;;;;11.60;4.80;;;;;;;21.03;27.16;102409.33;103819;1303;63653;-80
2022/01/12 09:25:39;;;;;;;11.30;4.90;;;;;;;20.99;27.19;102411.86;103824;1306;61227;-80
2022/01/12 09:28:06;;;;;;;13.80;5.10;;;;;;;20.94;26.85;102420.30;103911;1306;61172;-82
2022/01/12 09:30:32;;;;;;;9.80;5.20;;;;;;;20.89;26.63;102421.79;103943;1305;61314;-80
2022/01/12 09:32:59;;;;;;;13.40;5.40;;;;;;;20.83;26.46;102420.61;103769;1305;61296;-80
2022/01/12 09:35:24;;;;;;;13.40;5.70;;;;;;;20.77;26.10;102418.71;104049;1303;61421;-80
2022/01/12 09:37:50;;;;;;;8.50;5.10;;;;;;;20.74;26.08;102417.81;103943;1305;61367;-80
2022/01/12 09:40:16;;;;;;;10.50;5.40;;;;;;;20.72;25.84;102419.86;104119;1305;61350;-81
2022/01/12 09:42:44;;;;;;;8.60;5.00;;;;;;;20.73;25.59;102416.60;103984;1307;76474;-80
2022/01/12 09:45:15;;;;;;;11.90;5.20;;;;;;;20.75;25.34;102412.73;104065;1305;61304;-81
2022/01/12 09:47:42;;;;;;;11.20;5.70;;;;;;;20.78;25.24;102416.19;104993;1307;60389;-81
2022/01/12 09:50:10;;;;;;;13.60;5.50;;;;;;;20.83;24.93;102419.52;103779;1305;73943;-81
2022/01/12 09:52:35;;;;;;;11.70;6.10;;;;;;;20.87;25.08;102414.34;105494;1303;75949;-80
2022/01/12 09:55:01;;;;;;;10.00;5.80;;;;;;;20.86;24.87;102414.22;105224;1306;59634;-82
2022/01/12 09:57:27;;;;;;;15.40;5.80;;;;;;;20.75;24.78;102414.52;105203;1304;60096;-81
2022/01/12 09:59:53;;;;;;;19.00;5.50;;;;;;;20.65;24.91;102415.48;105284;1306;60789;-81
2022/01/12 10:02:19;;;;;;;16.90;5.20;;;;;;;20.58;25.10;102415.77;105335;1305;60346;-80
2022/01/12 10:04:45;;;;;;;15.20;6.30;;;;;;;20.55;25.58;102419.64;103789;1307;61396;-80
2022/01/12 10:07:11;;;;;;;9.30;4.80;;;;;;;20.53;25.57;102420.13;103821;1305;62132;-80
2022/01/12 10:09:39;;;;;;;14.90;5.30;;;;;;;20.50;25.60;102411.64;103588;1306;62232;-80
2022/01/12 10:12:10;;;;;;;15.50;5.60;;;;;;;20.50;25.55;102409.17;105450;1305;72950;-79
2022/01/12 10:15:14;;;;;;;10.90;5.40;;;;;;;20.52;25.45;102410.30;104089;1305;74542;-80
2022/01/12 10:17:41;;;;;;;8.80;5.40;;;;;;;20.56;25.27;102409.96;103582;1312;61374;-80
2022/01/12 10:20:12;;;;;;;15.10;5.80;;;;;;;20.58;25.30;102411.30;103495;1312;62680;-82
2022/01/12 10:22:43;;;;;;;12.60;5.90;;;;;;;20.58;25.24;102414.86;103456;1310;72840;-80
2022/01/12 10:25:19;;;;;;;11.00;5.40;;;;;;;20.56;25.20;102413.00;103513;1310;74685;-80
2022/01/12 10:27:46;;;;;;;9.90;5.60;;;;;;;20.56;25.26;102410.68;103641;1311;61383;-80
2022/01/12 10:30:23;;;;;;;10.70;5.50;;;;;;;20.55;25.12;102414.13;103449;1311;61306;-80
2022/01/12 10:33:18;;;;;;;11.00;5.30;;;;;;;20.56;25.08;102409.04;103415;1313;71959;-79
2022/01/12 10:35:44;;;;;;;13.80;5.30;;;;;;;20.59;25.09;102416.45;103028;1317;74975;-79
2022/01/12 10:38:11;;;;;;;9.00;5.00;;;;;;;20.64;25.25;102418.60;102863;1317;61492;-80
2022/01/12 10:40:43;;;;;;;10.20;5.60;;;;;;;20.69;25.34;102418.91;102912;1317;62971;-80
2022/01/12 10:43:47;;;;;;;9.50;4.80;;;;;;;20.73;25.37;102416.40;103022;1317;73946;-80
2022/01/12 10:46:26;;;;;;;10.10;5.10;;;;;;;20.78;25.54;102416.20;102876;1317;74795;-80
2022/01/12 10:49:20;;;;;;;12.40;6.60;;;;;;;20.76;25.44;102417.15;102711;1318;61879;-81
2022/01/12 10:51:53;;;;;;;16.20;7.20;;;;;;;20.50;24.99;102412.71;103778;1317;60499;-81
2022/01/12 10:54:28;;;;;;;12.90;6.00;;;;;;;20.27;24.84;102411.23;104189;1318;72655;-81
2022/01/12 10:56:54;;;;;;;12.00;6.30;;;;;;;20.16;24.89;102407.58;104119;1319;74592;-81
2022/01/12 10:59:21;;;;;;;15.20;6.00;;;;;;;20.11;25.08;102412.60;104079;1320;59478;-81
2022/01/12 11:01:47;;;;;;;13.90;6.40;;;;;;;20.09;25.25;102413.40;103459;1320;60063;-82
2022/01/12 11:04:13;;;;;;;16.50;5.40;;;;;;;20.10;25.26;102409.04;102625;1319;61382;-82
2022/01/12 11:06:40;;;;;;;11.00;6.00;;;;;;;20.11;25.62;102400.26;102655;1319;61289;-82
2022/01/12 11:09:06;;;;;;;10.00;6.30;;;;;;;20.11;25.39;102402.23;102581;1319;62198;-83
2022/01/12 11:11:34;;;;;;;9.00;6.30;;;;;;;20.09;25.24;102398.71;102789;1313;61405;-83
2022/01/12 11:14:00;;;;;;;12.00;6.10;;;;;;;20.08;25.03;102397.86;102792;1317;72735;-79
2022/01/12 11:16:27;;;;;;;16.80;7.00;;;;;;;20.08;25.18;102401.44;102942;1317;61441;-79
2022/01/12 11:18:54;;;;;;;9.50;5.50;;;;;;;20.08;24.94;102399.48;103971;1317;61231;-81
2022/01/12 11:21:36;;;;;;;13.10;6.20;;;;;;;20.07;24.93;102399.16;102834;1316;63333;-80
2022/01/12 11:24:04;;;;;;;17.50;6.90;;;;;;;20.06;24.93;102396.34;104429;1316;72771;-81
2022/01/12 11:26:32;;;;;;;12.20;6.20;;;;;;;20.06;24.97;102393.32;104306;1317;76224;-80
2022/01/12 11:28:59;;;;;;;10.90;6.70;;;;;;;20.06;24.93;102397.96;104743;1310;60658;-79
2022/01/12 11:31:26;;;;;;;13.60;6.10;;;;;;;20.07;24.92;102394.52;105142;1308;60872;-80
2022/01/12 11:33:51;;;;;;;12.20;5.90;;;;;;;20.10;24.83;102396.71;104563;1309;72853;-80
2022/01/12 11:36:25;;;;;;;12.10;6.00;;;;;;;20.14;24.75;102399.07;103642;1310;61396;-78
2022/01/12 11:39:05;;;;;;;14.60;6.40;;;;;;;20.15;24.71;102404.55;104240;1308;61582;-79
2022/01/12 11:41:32;;;;;;;11.10;6.30;;;;;;;20.17;24.77;102401.97;104143;1309;61394;-80
2022/01/12 11:44:01;;;;;;;9.50;5.70;;;;;;;20.17;24.73;102393.39;104087;1311;73405;-80
2022/01/12 11:46:49;;;;;;;18.90;6.30;;;;;;;20.17;24.85;102392.12;103701;1308;74846;-79
2022/01/12 11:49:31;;;;;;;13.80;6.90;;;;;;;20.15;24.74;102397.21;103855;1306;61236;-81
2022/01/12 11:51:58;;;;;;;14.70;6.70;;;;;;;20.03;24.42;102395.57;105104;1306;59558;-83
2022/01/12 11:54:38;;;;;;;13.00;6.60;;;;;;;20.00;24.39;102396.27;105269;1306;73874;-81
2022/01/12 11:57:06;;;;;;;12.40;8.10;;;;;;;19.98;24.14;102393.13;105177;1306;75972;-82
2022/01/12 11:59:48;;;;;;;11.90;6.90;;;;;;;19.95;24.07;102396.81;105420;1306;60363;-82
2022/01/12 12:02:17;;;;;;;12.70;6.50;;;;;;;19.90;23.85;102400.20;105304;1305;60822;-82
2022/01/12 12:04:53;;;;;;;13.10;7.20;;;;;;;19.88;23.94;102403.14;105321;1305;73757;-83
2022/01/12 12:07:19;;;;;;;11.60;6.90;;;;;;;19.88;23.75;102397.64;105385;1305;74686;-81
2022/01/12 12:09:48;;;;;;;9.40;5.20;;;;;;;19.88;23.86;102395.13;105379;1306;59441;-81
2022/01/12 12:12:42;;;;;;;12.80;6.30;;;;;;;19.92;24.16;102399.05;105354;1306;60505;-82
2022/01/12 12:15:08;;;;;;;12.10;6.50;;;;;;;20.00;24.32;102404.45;105052;1310;73793;-82
2022/01/12 12:17:36;;;;;;;15.40;6.40;;;;;;;20.04;24.39;102407.14;104925;1312;75669;-81
2022/01/12 12:20:06;;;;;;;15.40;6.70;;;;;;;20.06;24.32;102405.46;104203;1311;61597;-81
2022/01/12 12:22:33;;;;;;;9.80;6.00;;;;;;;20.05;24.39;102404.25;103696;1311;61435;-81
2022/01/12 12:25:02;;;;;;;8.90;6.00;;;;;;;20.04;24.45;102402.84;103673;1310;73733;-82
2022/01/12 12:27:31;;;;;;;13.50;6.90;;;;;;;20.04;24.56;102403.95;103791;1311;75671;-79
2022/01/12 12:29:56;;;;;;;11.00;6.90;;;;;;;20.02;24.39;102408.48;103728;1311;61594;-79
2022/01/12 12:32:37;;;;;;;10.40;6.20;;;;;;;20.02;24.40;102408.15;103623;1309;61497;-79
2022/01/12 12:35:16;;;;;;;11.40;6.30;;;;;;;20.00;24.58;102409.29;104647;1311;73045;-80
2022/01/12 12:37:58;;;;;;;12.70;6.70;;;;;;;19.98;24.80;102413.30;103693;1311;75835;-79
2022/01/12 12:40:28;;;;;;;13.80;6.80;;;;;;;19.96;24.94;102410.19;103866;1311;61668;-83
2022/01/12 12:43:00;;;;;;;12.00;6.70;;;;;;;19.94;25.09;102410.23;103749;1310;61623;-80
2022/01/12 12:46:02;;;;;;;11.70;6.60;;;;;;;19.92;25.11;102406.02;103789;1311;71674;-80
2022/01/12 12:48:34;;;;;;;13.40;6.00;;;;;;;19.88;25.26;102404.39;103658;1313;74618;-80
2022/01/12 12:51:14;;;;;;;14.90;6.20;;;;;;;19.90;25.34;102403.60;104801;1313;60356;-81
2022/01/12 12:53:45;;;;;;;11.10;6.40;;;;;;;19.91;25.52;102402.14;105198;1308;60971;-80
2022/01/12 12:56:14;;;;;;;11.80;6.10;;;;;;;19.91;25.51;102404.30;105332;1306;72775;-81
2022/01/12 12:58:40;;;;;;;10.10;6.20;;;;;;;19.90;25.66;102398.59;105281;1306;74749;-81
2022/01/12 13:01:06;;;;;;;15.20;6.40;;;;;;;19.91;25.52;102401.27;104814;1306;61253;-84